createdAt,value
2018-09-21T00:00:32.806Z,20.60
2018-09-21T00:03:00.402Z,20.60
2018-09-21T00:05:28.000Z,20.60
2018-09-21T00:07:55.487Z,20.50
2018-09-21T00:10:23.024Z,20.50
2018-09-21T00:12:50.513Z,20.50
2018-09-21T00:15:18.031Z,20.50
2018-09-21T00:17:45.639Z,20.40
2018-09-21T00:20:13.229Z,20.40
2018-09-21T00:22:40.782Z,20.40
2018-09-21T00:25:08.362Z,20.40
2018-09-21T00:27:35.881Z,20.40
2018-09-21T00:30:03.516Z,20.40
2018-09-21T00:32:31.100Z,20.30
2018-09-21T00:34:58.587Z,20.30
2018-09-21T00:37:26.057Z,20.30
2018-09-21T00:39:53.566Z,20.30
2018-09-21T00:42:21.072Z,20.30
2018-09-21T00:44:48.602Z,20.20
2018-09-21T00:47:16.168Z,20.20
2018-09-21T00:49:43.660Z,20.20
2018-09-21T00:52:11.162Z,20.20
2018-09-21T00:54:38.714Z,20.10
2018-09-21T00:57:06.225Z,20.10
2018-09-21T00:59:33.725Z,20.10
2018-09-21T01:02:01.265Z,20.10
2018-09-21T01:04:33.320Z,20.10
2018-09-21T01:07:00.886Z,20.00
2018-09-21T01:09:28.462Z,20.00
2018-09-21T01:11:55.960Z,20.00
2018-09-21T01:14:23.550Z,20.00
2018-09-21T01:16:51.074Z,19.90
2018-09-21T01:19:18.591Z,20.00
2018-09-21T01:21:46.109Z,19.90
2018-09-21T01:24:13.593Z,19.90
2018-09-21T01:26:41.082Z,19.90
2018-09-21T01:29:08.736Z,19.90
2018-09-21T01:31:36.244Z,19.90
2018-09-21T01:34:03.738Z,19.80
2018-09-21T01:36:31.282Z,19.80
2018-09-21T01:38:58.810Z,19.80
2018-09-21T01:41:26.312Z,19.80
2018-09-21T01:43:53.949Z,19.80
2018-09-21T01:46:21.505Z,19.80
2018-09-21T01:48:49.056Z,19.70
2018-09-21T01:51:16.612Z,19.70
2018-09-21T01:53:44.156Z,19.70
2018-09-21T01:56:11.678Z,19.70
2018-09-21T01:58:39.208Z,19.70
2018-09-21T02:01:06.732Z,19.70
2018-09-21T02:03:34.245Z,19.70
2018-09-21T02:06:01.805Z,19.60
2018-09-21T02:08:29.292Z,19.60
2018-09-21T02:10:56.842Z,19.60
2018-09-21T02:13:24.414Z,19.60
2018-09-21T02:15:52.034Z,19.50
2018-09-21T02:18:19.536Z,19.50
2018-09-21T02:20:47.052Z,19.60
2018-09-21T02:23:14.573Z,19.60
2018-09-21T02:25:42.102Z,19.60
2018-09-21T02:28:09.640Z,19.60
2018-09-21T02:30:37.187Z,19.50
2018-09-21T02:33:04.713Z,19.50
2018-09-21T02:35:32.305Z,19.50
2018-09-21T02:37:59.789Z,19.50
2018-09-21T02:40:27.307Z,19.40
2018-09-21T02:42:54.866Z,19.40
2018-09-21T02:45:22.373Z,19.40
2018-09-21T02:47:49.894Z,19.40
2018-09-21T02:50:17.403Z,19.40
2018-09-21T02:52:45.055Z,19.40
2018-09-21T02:55:12.567Z,19.40
2018-09-21T02:57:40.107Z,19.40
2018-09-21T03:00:08.145Z,19.40
2018-09-21T03:02:35.665Z,19.30
2018-09-21T03:05:03.283Z,19.30
2018-09-21T03:07:30.839Z,19.30
2018-09-21T03:09:58.389Z,19.30
2018-09-21T03:12:25.953Z,19.30
2018-09-21T03:14:53.519Z,19.30
2018-09-21T03:17:21.073Z,19.30
2018-09-21T03:19:48.613Z,19.30
2018-09-21T03:22:16.155Z,19.30
2018-09-21T03:24:43.674Z,19.30
2018-09-21T03:27:11.240Z,19.30
2018-09-21T03:29:38.773Z,19.30
2018-09-21T03:32:06.319Z,19.30
2018-09-21T03:34:33.820Z,19.30
2018-09-21T03:37:01.341Z,19.30
2018-09-21T03:39:28.958Z,19.30
2018-09-21T03:41:56.621Z,19.30
2018-09-21T03:44:24.217Z,19.30
2018-09-21T03:46:51.743Z,19.30
2018-09-21T03:49:19.349Z,19.30
2018-09-21T03:51:46.879Z,19.20
2018-09-21T03:54:21.161Z,19.10
2018-09-21T03:56:48.667Z,19.00
2018-09-21T03:59:16.308Z,18.80
2018-09-21T04:01:43.821Z,18.60
2018-09-21T04:04:11.440Z,18.50
2018-09-21T04:06:38.941Z,18.50
2018-09-21T04:09:07.909Z,18.40
2018-09-21T04:11:35.509Z,18.40
2018-09-21T04:14:03.081Z,18.30
2018-09-21T04:16:30.625Z,18.30
2018-09-21T04:18:58.158Z,18.30
2018-09-21T04:21:25.745Z,18.20
2018-09-21T04:23:53.316Z,18.20
2018-09-21T04:26:20.821Z,18.20
2018-09-21T04:28:48.343Z,18.20
2018-09-21T04:31:15.897Z,18.20
2018-09-21T04:33:43.461Z,18.00
2018-09-21T04:36:10.987Z,17.80
2018-09-21T04:38:38.649Z,17.60
2018-09-21T04:41:06.203Z,17.40
2018-09-21T04:43:33.715Z,17.20
2018-09-21T04:46:01.319Z,17.20
2018-09-21T04:48:28.872Z,17.10
2018-09-21T04:50:56.367Z,17.10
2018-09-21T04:53:23.875Z,17.00
2018-09-21T04:55:51.473Z,17.00
2018-09-21T04:58:18.971Z,17.00
2018-09-21T05:00:46.525Z,17.00
2018-09-21T05:03:14.063Z,16.90
2018-09-21T05:05:41.579Z,17.00
2018-09-21T05:08:09.164Z,17.00
2018-09-21T05:10:36.698Z,17.00
2018-09-21T05:13:04.255Z,17.00
2018-09-21T05:15:31.797Z,17.00
2018-09-21T05:17:59.293Z,17.00
2018-09-21T05:20:26.827Z,17.00
2018-09-21T05:22:54.384Z,17.00
2018-09-21T05:25:21.919Z,17.00
2018-09-21T05:27:51.419Z,16.80
2018-09-21T05:30:18.999Z,16.80
2018-09-21T05:32:46.547Z,16.80
2018-09-21T05:35:14.153Z,16.80
2018-09-21T05:37:41.683Z,16.80
2018-09-21T05:40:09.226Z,16.80
2018-09-21T05:42:36.778Z,16.80
2018-09-21T05:45:05.281Z,16.80
2018-09-21T05:47:32.821Z,16.80
2018-09-21T05:50:00.390Z,16.70
2018-09-21T05:52:28.756Z,16.50
2018-09-21T05:54:56.264Z,16.10
2018-09-21T05:57:23.784Z,15.70
2018-09-21T05:59:51.382Z,15.40
2018-09-21T06:02:18.978Z,15.20
2018-09-21T06:04:46.644Z,15.10
2018-09-21T06:07:14.567Z,15.00
2018-09-21T06:09:42.166Z,14.90
2018-09-21T06:12:09.782Z,14.80
2018-09-21T06:14:37.358Z,14.80
2018-09-21T06:17:05.102Z,14.80
2018-09-21T06:19:32.723Z,14.70
2018-09-21T06:22:00.258Z,14.70
2018-09-21T06:24:27.754Z,14.70
2018-09-21T06:26:55.336Z,14.70
2018-09-21T06:29:22.963Z,14.80
2018-09-21T06:31:50.554Z,14.70
2018-09-21T06:34:18.120Z,14.70
2018-09-21T06:36:45.654Z,14.70
2018-09-21T06:39:13.177Z,14.70
2018-09-21T06:41:40.696Z,14.80
2018-09-21T06:44:08.616Z,14.80
2018-09-21T06:46:36.182Z,14.80
2018-09-21T06:49:03.715Z,14.90
2018-09-21T06:51:31.322Z,14.90
2018-09-21T06:53:58.914Z,14.90
2018-09-21T06:56:26.460Z,14.90
2018-09-21T06:58:54.050Z,15.00
2018-09-21T07:01:21.629Z,15.00
2018-09-21T07:03:49.100Z,15.00
2018-09-21T07:06:16.684Z,15.00
2018-09-21T07:08:44.743Z,15.00
2018-09-21T07:11:12.293Z,15.00
2018-09-21T07:13:39.845Z,15.10
2018-09-21T07:16:07.382Z,15.10
2018-09-21T07:18:34.948Z,15.00
2018-09-21T07:21:02.511Z,15.10
2018-09-21T07:23:30.100Z,15.10
2018-09-21T07:25:57.650Z,15.20
2018-09-21T07:28:25.316Z,15.20
2018-09-21T07:30:52.918Z,15.30
2018-09-21T07:33:20.437Z,15.40
2018-09-21T07:35:48.003Z,15.40
2018-09-21T07:38:15.587Z,15.40
2018-09-21T07:40:43.183Z,15.50
2018-09-21T07:43:10.745Z,15.50
2018-09-21T07:45:38.311Z,15.60
2018-09-21T07:48:05.849Z,15.80
2018-09-21T07:50:33.434Z,15.90
2018-09-21T07:53:00.876Z,16.00
2018-09-21T07:55:28.469Z,16.20
2018-09-21T07:57:56.077Z,16.30
2018-09-21T08:00:23.697Z,16.30
2018-09-21T08:02:51.234Z,16.40
2018-09-21T08:05:23.322Z,16.30
2018-09-21T08:07:50.847Z,16.30
2018-09-21T08:10:18.383Z,16.20
2018-09-21T08:12:45.989Z,16.10
2018-09-21T08:15:13.678Z,15.70
2018-09-21T08:17:41.241Z,15.20
2018-09-21T08:20:08.831Z,14.90
2018-09-21T08:22:36.402Z,14.70
2018-09-21T08:25:04.004Z,14.70
2018-09-21T08:27:31.625Z,14.70
2018-09-21T08:29:59.189Z,14.70
2018-09-21T08:32:26.757Z,14.80
2018-09-21T08:34:54.356Z,14.90
2018-09-21T08:37:21.992Z,15.00
2018-09-21T08:39:49.426Z,15.00
2018-09-21T08:42:16.973Z,15.00
2018-09-21T08:44:44.543Z,15.10
2018-09-21T08:47:12.043Z,15.10
2018-09-21T08:49:39.597Z,15.20
2018-09-21T08:52:07.153Z,15.30
2018-09-21T08:54:34.762Z,15.40
2018-09-21T08:57:02.315Z,15.60
2018-09-21T08:59:29.805Z,15.70
2018-09-21T09:01:57.361Z,15.80
2018-09-21T09:04:24.885Z,15.80
2018-09-21T09:06:52.440Z,15.90
2018-09-21T09:09:20.013Z,15.90
2018-09-21T09:11:47.666Z,16.00
2018-09-21T09:14:15.227Z,16.00
2018-09-21T09:16:42.870Z,16.00
2018-09-21T09:19:10.439Z,16.10
2018-09-21T09:21:38.275Z,16.20
2018-09-21T09:24:05.911Z,16.30
2018-09-21T09:26:33.561Z,16.40
2018-09-21T09:29:01.156Z,16.40
2018-09-21T09:31:28.729Z,16.50
2018-09-21T09:33:56.263Z,16.60
2018-09-21T09:36:23.806Z,16.50
2018-09-21T09:38:51.386Z,16.60
2018-09-21T09:41:18.907Z,16.60
2018-09-21T09:43:46.426Z,16.60
2018-09-21T09:46:13.998Z,16.40
2018-09-21T09:48:41.569Z,16.20
2018-09-21T09:51:09.100Z,16.10
2018-09-21T09:53:36.736Z,16.10
2018-09-21T09:56:04.297Z,16.10
2018-09-21T09:58:31.774Z,16.10
2018-09-21T10:00:59.361Z,16.10
2018-09-21T10:03:26.893Z,16.30
2018-09-21T10:05:54.453Z,16.30
2018-09-21T10:08:22.002Z,16.40
2018-09-21T10:10:49.557Z,16.40
2018-09-21T10:13:17.090Z,16.40
2018-09-21T10:15:45.994Z,16.40
2018-09-21T10:18:13.511Z,16.40
2018-09-21T10:20:41.138Z,16.30
2018-09-21T10:23:08.708Z,16.30
2018-09-21T10:25:36.246Z,16.20
2018-09-21T10:28:03.994Z,16.20
2018-09-21T10:30:31.666Z,16.20
2018-09-21T10:32:59.228Z,16.20
2018-09-21T10:35:26.797Z,16.20
2018-09-21T10:37:54.488Z,16.10
2018-09-21T10:40:22.275Z,16.20
2018-09-21T10:42:49.809Z,16.20
2018-09-21T10:45:17.326Z,16.20
2018-09-21T10:47:44.872Z,16.10
2018-09-21T10:50:12.394Z,16.10
2018-09-21T10:52:40.019Z,16.00
2018-09-21T10:55:07.582Z,16.10
2018-09-21T10:57:35.122Z,16.00
2018-09-21T11:00:02.732Z,16.10
2018-09-21T11:02:30.244Z,16.20
2018-09-21T11:04:57.749Z,16.50
2018-09-21T11:07:25.831Z,16.50
2018-09-21T11:09:53.407Z,16.40
2018-09-21T11:12:20.990Z,16.30
2018-09-21T11:14:49.954Z,16.10
2018-09-21T11:17:17.503Z,16.10
2018-09-21T11:19:45.032Z,16.40
2018-09-21T11:22:12.586Z,16.90
2018-09-21T11:24:40.148Z,17.60
2018-09-21T11:27:07.668Z,18.10
2018-09-21T11:29:35.222Z,18.30
2018-09-21T11:32:02.788Z,18.50
2018-09-21T11:34:30.322Z,18.80
2018-09-21T11:36:57.906Z,19.20
2018-09-21T11:39:25.426Z,19.20
2018-09-21T11:41:52.949Z,19.10
2018-09-21T11:44:20.512Z,18.60
2018-09-21T11:46:48.064Z,18.40
2018-09-21T11:49:15.552Z,18.10
2018-09-21T11:51:43.115Z,18.00
2018-09-21T11:54:10.688Z,18.30
2018-09-21T11:56:38.228Z,18.80
2018-09-21T11:59:05.743Z,19.30
2018-09-21T12:01:33.569Z,19.60
2018-09-21T12:04:01.128Z,19.80
2018-09-21T12:06:28.688Z,19.90
2018-09-21T12:08:56.198Z,20.20
2018-09-21T12:11:23.717Z,20.30
2018-09-21T12:13:51.228Z,20.30
2018-09-21T12:16:18.846Z,20.30
2018-09-21T12:18:46.430Z,20.40
2018-09-21T12:21:14.001Z,20.70
2018-09-21T12:23:41.559Z,20.60
2018-09-21T12:26:09.172Z,20.90
2018-09-21T12:28:36.694Z,20.90
2018-09-21T12:31:04.231Z,21.00
2018-09-21T12:33:31.816Z,21.10
2018-09-21T12:35:59.413Z,20.80
2018-09-21T12:38:26.919Z,20.20
2018-09-21T12:40:54.473Z,20.30
2018-09-21T12:43:21.988Z,20.50
2018-09-21T12:45:49.569Z,20.70
2018-09-21T12:48:17.096Z,21.00
2018-09-21T12:50:44.650Z,21.10
2018-09-21T12:53:12.222Z,20.80
2018-09-21T12:55:39.762Z,20.20
2018-09-21T12:58:07.304Z,19.60
2018-09-21T13:00:40.497Z,19.10
2018-09-21T13:03:08.036Z,18.90
2018-09-21T13:05:35.571Z,19.30
2018-09-21T13:08:03.181Z,19.70
2018-09-21T13:10:30.729Z,20.10
2018-09-21T13:12:58.323Z,20.70
2018-09-21T13:15:25.845Z,20.90
2018-09-21T13:17:53.437Z,21.10
2018-09-21T13:20:20.959Z,21.30
2018-09-21T13:22:48.531Z,21.50
2018-09-21T13:25:16.133Z,21.60
2018-09-21T13:27:43.647Z,21.80
2018-09-21T13:30:11.175Z,21.70
2018-09-21T13:32:38.756Z,21.80
2018-09-21T13:35:06.334Z,22.30
2018-09-21T13:37:33.881Z,22.20
2018-09-21T13:40:01.875Z,22.00
2018-09-21T13:42:29.388Z,22.30
2018-09-21T13:44:57.051Z,21.90
2018-09-21T13:47:24.575Z,21.80
2018-09-21T13:49:52.118Z,21.90
2018-09-21T13:52:19.670Z,22.30
2018-09-21T13:54:47.218Z,23.00
2018-09-21T13:57:14.741Z,23.70
2018-09-21T13:59:42.274Z,23.80
2018-09-21T14:02:09.790Z,23.30
2018-09-21T14:04:37.337Z,23.50
2018-09-21T14:07:05.025Z,23.90
2018-09-21T14:09:32.585Z,24.40
2018-09-21T14:12:00.095Z,24.50
2018-09-21T14:14:27.705Z,24.30
2018-09-21T14:16:55.287Z,24.10
2018-09-21T14:19:22.801Z,24.10
2018-09-21T14:21:50.450Z,24.30
2018-09-21T14:24:17.965Z,24.30
2018-09-21T14:26:45.953Z,24.40
2018-09-21T14:29:13.502Z,24.30
2018-09-21T14:31:41.022Z,24.30
2018-09-21T14:34:09.137Z,23.60
2018-09-21T14:36:36.817Z,23.90
2018-09-21T14:39:07.125Z,23.00
2018-09-21T14:41:34.634Z,22.40
2018-09-21T14:44:02.214Z,22.70
2018-09-21T14:46:29.747Z,22.80
2018-09-21T14:48:57.305Z,23.10
2018-09-21T14:51:24.850Z,23.30
2018-09-21T14:53:52.543Z,23.40
2018-09-21T14:56:20.058Z,23.50
2018-09-21T14:58:47.558Z,23.40
2018-09-21T15:01:15.101Z,22.50
2018-09-21T15:03:42.652Z,22.40
2018-09-21T15:06:10.234Z,22.70
2018-09-21T15:08:37.838Z,22.40
2018-09-21T15:11:05.498Z,22.50
2018-09-21T15:13:33.030Z,22.20
2018-09-21T15:16:00.555Z,22.10
2018-09-21T15:18:28.045Z,22.40
2018-09-21T15:20:55.550Z,21.80
2018-09-21T15:23:23.100Z,21.30
2018-09-21T15:25:50.605Z,20.80
2018-09-21T15:28:18.150Z,21.10
2018-09-21T15:30:45.704Z,20.70
2018-09-21T15:33:13.796Z,21.70
2018-09-21T15:35:41.348Z,21.60
2018-09-21T15:38:08.994Z,20.80
2018-09-21T15:40:36.558Z,20.90
2018-09-21T15:43:04.112Z,20.90
2018-09-21T15:45:31.688Z,20.40
2018-09-21T15:47:59.194Z,20.10
2018-09-21T15:50:26.749Z,19.90
2018-09-21T15:52:54.435Z,19.50
2018-09-21T15:55:21.920Z,19.20
2018-09-21T15:57:49.508Z,19.10
2018-09-21T16:00:17.041Z,19.30
2018-09-21T16:02:44.597Z,19.90
2018-09-21T16:05:12.198Z,19.80
2018-09-21T16:07:39.788Z,19.20
2018-09-21T16:10:07.467Z,18.90
2018-09-21T16:12:34.998Z,18.80
2018-09-21T16:15:03.238Z,19.30
2018-09-21T16:17:30.802Z,19.10
2018-09-21T16:19:58.357Z,19.20
2018-09-21T16:22:25.922Z,18.90
2018-09-21T16:24:53.708Z,19.10
2018-09-21T16:27:21.244Z,19.20
2018-09-21T16:29:48.762Z,19.80
2018-09-21T16:32:16.339Z,20.00
2018-09-21T16:34:43.906Z,19.70
2018-09-21T16:37:11.535Z,19.50
2018-09-21T16:39:39.048Z,19.20
2018-09-21T16:42:06.604Z,18.90
2018-09-21T16:44:34.236Z,18.60
2018-09-21T16:47:01.748Z,18.40
2018-09-21T16:49:29.296Z,18.70
2018-09-21T16:51:56.826Z,19.10
2018-09-21T16:54:24.412Z,19.10
2018-09-21T16:56:51.929Z,19.20
2018-09-21T16:59:19.492Z,19.30
2018-09-21T17:01:47.002Z,19.10
2018-09-21T17:04:14.704Z,19.30
2018-09-21T17:06:42.278Z,19.20
2018-09-21T17:09:11.194Z,19.20
2018-09-21T17:11:38.771Z,19.20
2018-09-21T17:14:06.404Z,19.10
2018-09-21T17:16:33.940Z,18.80
2018-09-21T17:19:01.494Z,18.40
2018-09-21T17:21:29.045Z,18.20
2018-09-21T17:23:56.570Z,17.80
2018-09-21T17:26:24.101Z,17.70
2018-09-21T17:28:51.624Z,17.50
2018-09-21T17:31:19.138Z,17.20
2018-09-21T17:33:46.869Z,17.10
2018-09-21T17:36:14.424Z,16.90
2018-09-21T17:38:42.011Z,16.70
2018-09-21T17:41:09.558Z,16.60
2018-09-21T17:43:37.170Z,16.50
2018-09-21T17:46:04.774Z,16.40
2018-09-21T17:48:32.314Z,16.30
2018-09-21T17:50:59.982Z,16.20
2018-09-21T17:53:27.608Z,16.20
2018-09-21T17:55:55.139Z,16.20
2018-09-21T17:58:22.658Z,16.10
2018-09-21T18:00:50.251Z,16.00
2018-09-21T18:03:17.790Z,16.00
2018-09-21T18:05:45.390Z,16.00
2018-09-21T18:08:13.008Z,15.90
2018-09-21T18:10:40.572Z,15.90
2018-09-21T18:13:08.119Z,15.80
2018-09-21T18:15:36.015Z,15.80
2018-09-21T18:18:03.542Z,15.70
2018-09-21T18:20:31.129Z,15.70
2018-09-21T18:22:58.837Z,15.70
2018-09-21T18:25:26.425Z,15.60
2018-09-21T18:27:53.999Z,15.60
2018-09-21T18:30:21.564Z,15.60
2018-09-21T18:32:49.119Z,15.60
2018-09-21T18:35:16.667Z,15.50
2018-09-21T18:37:44.246Z,15.50
2018-09-21T18:40:11.785Z,15.40
2018-09-21T18:42:39.407Z,15.40
2018-09-21T18:45:07.150Z,15.40
2018-09-21T18:47:34.715Z,15.40
2018-09-21T18:50:02.281Z,15.40
2018-09-21T18:52:29.890Z,15.40
2018-09-21T18:54:57.475Z,15.30
2018-09-21T18:57:25.029Z,15.30
2018-09-21T18:59:52.556Z,15.30
2018-09-21T19:02:20.153Z,15.30
2018-09-21T19:04:47.765Z,15.30
2018-09-21T19:07:21.097Z,15.20
2018-09-21T19:09:48.733Z,15.30
2018-09-21T19:12:16.246Z,15.20
2018-09-21T19:14:43.779Z,15.20
2018-09-21T19:17:11.319Z,15.20
2018-09-21T19:19:38.861Z,15.20
2018-09-21T19:22:06.433Z,15.30
2018-09-21T19:24:33.973Z,15.20
2018-09-21T19:27:01.641Z,15.20
2018-09-21T19:29:29.241Z,15.20
2018-09-21T19:31:56.801Z,15.20
2018-09-21T19:34:24.376Z,15.20
2018-09-21T19:36:51.990Z,15.20
2018-09-21T19:39:19.532Z,15.20
2018-09-21T19:41:47.398Z,15.10
2018-09-21T19:44:14.955Z,15.10
2018-09-21T19:46:42.618Z,15.10
2018-09-21T19:49:10.313Z,15.10
2018-09-21T19:51:37.912Z,15.00
2018-09-21T19:54:05.577Z,15.00
2018-09-21T19:56:33.407Z,15.00
2018-09-21T19:59:01.106Z,15.00
2018-09-21T20:01:28.663Z,15.00
2018-09-21T20:03:56.375Z,14.90
2018-09-21T20:06:24.242Z,14.90
2018-09-21T20:08:51.793Z,14.90
2018-09-21T20:11:19.469Z,14.90
2018-09-21T20:13:47.154Z,14.90
2018-09-21T20:16:14.822Z,14.90
2018-09-21T20:18:42.424Z,14.80
2018-09-21T20:21:10.080Z,14.80
2018-09-21T20:23:38.081Z,14.80
2018-09-21T20:26:05.759Z,14.80
2018-09-21T20:28:33.395Z,14.70
2018-09-21T20:31:06.850Z,14.70
2018-09-21T20:33:35.213Z,14.70
2018-09-21T20:36:02.744Z,14.70
2018-09-21T20:38:30.281Z,14.70
2018-09-21T20:40:58.155Z,14.60
2018-09-21T20:43:25.805Z,14.60
2018-09-21T20:45:54.287Z,14.60
2018-09-21T20:48:22.477Z,14.60
2018-09-21T20:50:50.203Z,14.50
2018-09-21T20:53:18.024Z,14.50
2018-09-21T20:55:45.853Z,14.50
2018-09-21T20:58:13.430Z,14.50
2018-09-21T21:00:40.952Z,14.50
2018-09-21T21:03:08.513Z,14.40
2018-09-21T21:05:36.069Z,14.40
2018-09-21T21:08:03.753Z,14.40
2018-09-21T21:10:31.308Z,14.40
2018-09-21T21:12:58.864Z,14.30
2018-09-21T21:15:26.480Z,14.30
2018-09-21T21:17:54.012Z,14.30
2018-09-21T21:20:21.579Z,14.30
2018-09-21T21:22:49.129Z,14.20
2018-09-21T21:25:16.674Z,14.20
2018-09-21T21:27:44.232Z,14.20
2018-09-21T21:30:11.742Z,14.20
2018-09-21T21:32:39.274Z,14.20
2018-09-21T21:35:06.869Z,14.10
2018-09-21T21:37:34.358Z,14.10
2018-09-21T21:40:01.941Z,14.10
2018-09-21T21:42:29.444Z,14.00
2018-09-21T21:44:56.930Z,14.00
2018-09-21T21:47:24.522Z,14.00
2018-09-21T21:49:52.232Z,13.90
2018-09-21T21:52:19.789Z,13.90
2018-09-21T21:54:47.397Z,13.90
2018-09-21T21:57:14.950Z,13.90
2018-09-21T21:59:43.179Z,13.80
2018-09-21T22:02:11.801Z,13.80
2018-09-21T22:04:39.912Z,13.80
2018-09-21T22:07:08.262Z,13.80
2018-09-21T22:09:35.802Z,13.80
2018-09-21T22:12:08.962Z,13.80
2018-09-21T22:14:36.506Z,13.80
2018-09-21T22:17:04.078Z,13.70
2018-09-21T22:19:31.601Z,13.70
2018-09-21T22:21:59.139Z,13.70
2018-09-21T22:24:26.672Z,13.60
2018-09-21T22:26:54.205Z,13.60
2018-09-21T22:29:21.747Z,13.60
2018-09-21T22:31:49.261Z,13.60
2018-09-21T22:34:16.788Z,13.50
2018-09-21T22:36:44.334Z,13.50
2018-09-21T22:39:11.852Z,13.50
2018-09-21T22:41:39.421Z,13.50
2018-09-21T22:44:06.973Z,13.50
2018-09-21T22:46:34.649Z,13.50
2018-09-21T22:49:04.250Z,13.50
2018-09-21T22:51:31.823Z,13.50
2018-09-21T22:53:59.374Z,13.40
2018-09-21T22:56:26.894Z,13.40
2018-09-21T22:58:54.448Z,13.40
2018-09-21T23:01:22.036Z,13.40
2018-09-21T23:03:49.550Z,13.40
2018-09-21T23:06:17.072Z,13.40
2018-09-21T23:08:44.588Z,13.40
2018-09-21T23:11:12.116Z,13.40
2018-09-21T23:13:39.661Z,13.30
2018-09-21T23:16:07.198Z,13.30
2018-09-21T23:18:34.738Z,13.30
2018-09-21T23:21:02.311Z,13.30
2018-09-21T23:23:29.848Z,13.20
2018-09-21T23:25:57.407Z,13.20
2018-09-21T23:28:24.961Z,13.20
2018-09-21T23:30:52.448Z,13.20
2018-09-21T23:33:19.997Z,13.20
2018-09-21T23:35:47.616Z,13.20
2018-09-21T23:38:15.158Z,13.20
2018-09-21T23:40:42.688Z,13.20
2018-09-21T23:43:10.232Z,13.20
2018-09-21T23:45:37.717Z,13.20
2018-09-21T23:48:05.416Z,13.10
2018-09-21T23:50:32.953Z,13.10
2018-09-21T23:53:00.546Z,13.10
2018-09-21T23:55:28.023Z,13.10
2018-09-21T23:57:55.580Z,13.10
